Pagrindinis puslapis
METAR-TAF:

METAR-TAF

Oro uostai :

Turinas, Italija

platuma: 45-05-20N, ilguma: 007-36-20E, Aukštis: 288 m

Dabartinis oras

Ataskaita buvo paskelbta 1 valandą ir 37 minutes, ne 17:02 UTC
Vėjas 6 kt iš Šiaurės Vakarų, svyruoja nuo Vakarų ir Šiaurės
Temperatūra 17°C
Drėgmė 77%
Slėgis 1014 hPa
Matomumas 10 km arba daugiau
Išsisklaidę debesys ne aukštis 4000 ft
lietus

METAR: LIMA 301702Z 32006KT 280V010 9999 -RA SCT040 17/13 Q1014 RETS

Laikas: 20:39 (18:39 UTC)


TAF: trūkstamas

Orai ataskaitas ir orų prognozės (METAR, TAF).

turimą stotys yra geltonos ir raudonos taškus žemėlapyje.

Perkelti pele per norėdami pamatyti stoties vardą.

Tada spustelėkite, norėdami matyti oro stebėjimo ir prognozės.

Norėdami pakeisti žemėlapį: spustelėkite ant žalios mygtukų su juodo kryžiaus žemyn,; žalią mygtuką su brūkšneliu, jei norite nutolinti; arba žalių rodyklių gretimoms žemėlapius.


METAR-TAF: